Live from Altenrhein
LIVE
LSZR 230450Z AUTO 10004KT 9999 OVC050 04/04 Q1023

People´s C-Office:

T: +41 (0)71 858 51 65

E: c-office@peoples.ch

Webcam Airport St. Gallen-Altenrhein

Live images LSZR.

 

Live from Altenrhein
LIVE
LSZR 230450Z AUTO 10004KT 9999 OVC050 04/04 Q1023
Time-laps today
2017-04-23 00:15:00
LSZR 222150Z AUTO 01010KT 9999 -RA BKN026 07/05 Q1023
Time-laps yesterday
2017-04-22 00:14:58
LSZR 212150Z AUTO VRB02KT CAVOK 06/M02 Q1027
Time-laps 3 days ago
2017-04-20 00:14:55
LSZR 192150Z AUTO 03007KT 9999 BKN060 02/M03 Q1031